Airfield :
LOGIN :

Register | Disclaimer

   EN    FR    IT 

 










Legend :    VFR   Marginal VFR   IFR   Intensive IFR   Very Intensive IFR
Visi :
Ceiling :
>= 8 km
>= 3000ft
5 to 8 km
1000 to 3000 ft
1500m to 5 km
500 to 1000 ft
800 to 1500m
200 to 500 ft
< 800m
< 200 ft
Symbols :   Thunderstorms  Fog  Heavy snow  Heavy precipitations  Wind > 20 kt
SIGMETs :     Misc.  Thunderstorms  Icing  Turbulence  Mountain Waves  Volcanic Ashes






- Airport Elevation : 453 ft
- IATA code : SBK


LFRT - St Brieuc Armor

CURRENT METAR :
  • 250200Z AUTO 32003KT CAVOK 13/13 Q1016

EXPIRED METARs :
  • 250130Z AUTO 33003KT CAVOK 13/13 Q1016
  • 250100Z AUTO 01003KT CAVOK 14/13 Q1016
  • 250030Z AUTO 03004KT CAVOK 14/13 Q1016
  • 250000Z AUTO 02003KT CAVOK 14/13 Q1017
  • 242330Z AUTO 36002KT CAVOK 14/13 Q1017
  • 242300Z AUTO 01003KT CAVOK 14/13 Q1017
  • 242230Z AUTO 05004KT CAVOK 16/14 Q1017
  • 242200Z AUTO 04004KT CAVOK 15/13 Q1017
  • 242130Z AUTO 04003KT CAVOK 16/14 Q1017

Expired Forecast.



MET'MAP, your aeronautical weather chart ! - Copyright ORBIFLY December 2007 - Disclaimer

ORBIFLY MET'MAP TEAM :

Programming & Development : Alexandra Zaïnal
Original concept : Baudouin d'Aumeries
Technical & hardware support : Manuel Goepfert
Assistance : Marc-Olivier Méhu




SOURCES & CREDITS :

   NOAA